Time;durP1;ratioP1;P1;durP2;ratioP2;P2;SDS_P1;SDS_P2;PMS_P1;PMS_P2;Temp;Humidity;BMP_temperature;BMP_pressure;BME280_temperature;BME280_humidity;BME280_pressure;Samples;Min_cycle;Max_cycle;Signal;HPM_P1;HPM_P2
2022/10/15 00:01:54;;;;;;;2.55;1.40;;;14.30;78.10;;;;;;7368139;19;20038;-72
2022/10/15 00:04:27;;;;;;;2.85;1.30;;;14.30;78.20;;;;;;7370281;19;20081;-73
2022/10/15 00:06:56;;;;;;;2.67;1.58;;;14.30;78.20;;;;;;7387529;19;20019;-72
2022/10/15 00:09:26;;;;;;;4.90;1.77;;;14.30;78.30;;;;;;7370154;19;20014;-72
2022/10/15 00:11:56;;;;;;;2.60;1.60;;;14.30;78.30;;;;;;7368263;19;20419;-72
2022/10/15 00:14:26;;;;;;;5.13;1.83;;;14.30;79.10;;;;;;7367929;19;20011;-72
2022/10/15 00:16:56;;;;;;;4.40;1.48;;;14.30;78.40;;;;;;7365614;19;20007;-72
2022/10/15 00:19:29;;;;;;;3.83;1.40;;;14.30;78.50;;;;;;7367263;19;20047;-73
2022/10/15 00:21:58;;;;;;;2.47;1.40;;;14.30;78.50;;;;;;7389441;19;20466;-72
2022/10/15 00:24:48;;;;;;;2.47;1.20;;;14.40;78.60;;;;;;7371140;19;20007;-72
2022/10/15 00:27:18;;;;;;;2.03;1.30;;;14.40;78.70;;;;;;7368464;19;20014;-72
2022/10/15 00:29:48;;;;;;;2.08;1.20;;;14.40;78.70;;;;;;7398214;19;20010;-72
2022/10/15 00:32:17;;;;;;;1.13;0.90;;;14.40;78.80;;;;;;7393997;19;20007;-72
2022/10/15 00:34:50;;;;;;;2.47;1.13;;;14.40;78.80;;;;;;7396779;19;20014;-72
2022/10/15 00:37:20;;;;;;;2.58;0.85;;;14.40;78.70;;;;;;7392366;19;20034;-72
2022/10/15 00:39:49;;;;;;;2.17;0.70;;;14.50;78.90;;;;;;7394098;19;20007;-72
2022/10/15 00:42:19;;;;;;;2.05;0.80;;;14.50;78.80;;;;;;7394867;19;20070;-72
2022/10/15 00:44:54;;;;;;;2.80;1.10;;;14.50;78.80;;;;;;7394966;19;20015;-72
2022/10/15 00:47:31;;;;;;;1.92;1.00;;;14.50;78.70;;;;;;7391804;19;20478;-72
2022/10/15 00:50:07;;;;;;;3.80;1.13;;;14.50;78.70;;;;;;7394399;19;20014;-72
2022/10/15 00:52:44;;;;;;;1.65;0.75;;;14.50;78.80;;;;;;7395018;19;20355;-72
2022/10/15 00:55:19;;;;;;;1.27;0.60;;;14.50;78.80;;;;;;7393892;19;20058;-72
2022/10/15 00:57:51;;;;;;;3.90;0.70;;;14.50;78.70;;;;;;7393781;19;20010;-72
2022/10/15 01:00:21;;;;;;;2.58;0.75;;;14.50;78.60;;;;;;7395385;19;20011;-72
2022/10/15 01:02:51;;;;;;;2.17;0.85;;;14.60;78.90;;;;;;7398005;19;20015;-72
2022/10/15 01:05:24;;;;;;;0.80;0.50;;;14.60;78.70;;;;;;7398410;19;20011;-71
2022/10/15 01:07:54;;;;;;;1.30;0.47;;;14.60;78.80;;;;;;7391449;19;20014;-71
2022/10/15 01:10:29;;;;;;;0.65;0.45;;;14.60;78.80;;;;;;7393324;19;20228;-72
2022/10/15 01:13:08;;;;;;;0.90;0.70;;;14.60;78.70;;;;;;7393739;19;20011;-72
2022/10/15 01:15:45;;;;;;;0.80;0.70;;;14.60;78.60;;;;;;7392716;19;20018;-72
2022/10/15 01:18:18;;;;;;;0.68;0.40;;;14.70;78.50;;;;;;7391188;19;20510;-72
2022/10/15 01:21:14;;;;;;;5.57;0.50;;;14.70;78.50;;;;;;7393036;19;20019;-72
2022/10/15 01:24:21;;;;;;;1.17;0.43;;;14.70;78.50;;;;;;7392874;19;20340;-72
2022/10/15 01:27:24;;;;;;;1.00;0.30;;;14.70;78.40;;;;;;7390870;19;20010;-72
2022/10/15 01:30:25;;;;;;;2.40;0.60;;;14.70;78.40;;;;;;7392013;19;20014;-72
2022/10/15 01:33:26;;;;;;;1.27;0.60;;;14.70;78.40;;;;;;7393730;19;20010;-72
2022/10/15 01:36:01;;;;;;;0.70;0.40;;;14.70;78.30;;;;;;7395542;19;20018;-72
2022/10/15 01:38:47;;;;;;;1.02;0.50;;;14.70;78.30;;;;;;7392349;19;20010;-72
2022/10/15 01:41:22;;;;;;;0.60;0.40;;;14.80;78.50;;;;;;7392384;19;20010;-72
2022/10/15 01:44:00;;;;;;;1.02;0.40;;;14.80;78.40;;;;;;7391793;19;20034;-72
2022/10/15 01:46:34;;;;;;;1.83;0.80;;;14.80;78.40;;;;;;7390583;19;20017;-72
2022/10/15 01:49:08;;;;;;;0.35;0.30;;;14.80;78.50;;;;;;7392707;19;20058;-72
2022/10/15 01:51:41;;;;;;;1.17;0.50;;;14.80;78.40;;;;;;7392035;19;20829;-72
2022/10/15 01:54:16;;;;;;;1.90;0.38;;;14.80;78.40;;;;;;7392364;19;20014;-72
2022/10/15 01:56:48;;;;;;;2.28;0.40;;;14.90;78.50;;;;;;7391253;19;20019;-72
2022/10/15 01:59:20;;;;;;;2.65;0.40;;;14.90;78.50;;;;;;7396116;19;20015;-72
2022/10/15 02:01:50;;;;;;;0.20;0.20;;;14.90;78.50;;;;;;7395706;19;20010;-72
2022/10/15 02:04:27;;;;;;;0.77;0.40;;;14.90;78.50;;;;;;7396586;19;20077;-72
2022/10/15 02:07:02;;;;;;;0.80;0.50;;;14.90;78.60;;;;;;7388051;19;20060;-72
2022/10/15 02:09:40;;;;;;;0.55;0.55;;;14.90;78.60;;;;;;7391496;19;20746;-72
2022/10/15 02:12:21;;;;;;;1.17;0.50;;;14.90;78.60;;;;;;7391290;19;20478;-72
2022/10/15 02:15:00;;;;;;;0.70;0.40;;;14.90;78.80;;;;;;7391650;19;20044;-72
2022/10/15 02:17:37;;;;;;;2.22;0.32;;;14.90;79.10;;;;;;7388613;19;20077;-72
2022/10/15 02:20:16;;;;;;;0.45;0.30;;;14.90;79.30;;;;;;7391598;19;20046;-72
2022/10/15 02:22:50;;;;;;;1.23;0.50;;;14.90;79.30;;;;;;7391347;19;20482;-72
2022/10/15 02:25:23;;;;;;;0.70;0.30;;;14.90;79.30;;;;;;7391242;19;20026;-72
2022/10/15 02:27:56;;;;;;;1.60;0.23;;;14.90;79.40;;;;;;7389196;19;20372;-72
2022/10/15 02:30:27;;;;;;;1.20;0.50;;;14.90;79.50;;;;;;7391076;19;20252;-72
2022/10/15 02:33:00;;;;;;;1.02;0.40;;;14.90;79.50;;;;;;7391492;19;20035;-71
2022/10/15 02:35:35;;;;;;;0.60;0.35;;;14.90;79.60;;;;;;7393928;19;20474;-72
2022/10/15 02:38:09;;;;;;;1.15;0.60;;;14.90;79.60;;;;;;7388330;19;20011;-72
2022/10/15 02:40:40;;;;;;;1.55;0.55;;;14.90;79.60;;;;;;7389116;19;20019;-72
2022/10/15 02:43:14;;;;;;;0.88;0.60;;;14.90;79.70;;;;;;7391323;19;20007;-72
2022/10/15 02:45:44;;;;;;;1.00;0.60;;;14.90;79.80;;;;;;7390744;19;20018;-71
2022/10/15 02:48:14;;;;;;;2.15;0.70;;;14.90;79.80;;;;;;7389800;19;20018;-72
2022/10/15 02:50:46;;;;;;;0.55;0.40;;;14.90;80.00;;;;;;7390426;19;20011;-72
2022/10/15 02:53:16;;;;;;;1.95;0.60;;;14.80;79.90;;;;;;7390704;19;20091;-72
2022/10/15 02:55:46;;;;;;;1.58;0.40;;;14.90;80.20;;;;;;7390585;19;20372;-73
2022/10/15 02:58:15;;;;;;;0.68;0.50;;;14.90;80.30;;;;;;7391977;19;20470;-72
2022/10/15 03:00:45;;;;;;;2.20;0.47;;;14.80;80.20;;;;;;7390980;19;20014;-72
2022/10/15 03:03:15;;;;;;;2.15;0.52;;;14.90;80.40;;;;;;7394375;19;20471;-72
2022/10/15 03:05:48;;;;;;;1.98;0.55;;;14.90;80.50;;;;;;7389736;19;20475;-72
2022/10/15 03:08:17;;;;;;;2.60;0.40;;;14.90;80.50;;;;;;7388913;19;20003;-72
2022/10/15 03:10:47;;;;;;;1.10;0.52;;;14.90;80.60;;;;;;7389724;19;20034;-72
2022/10/15 03:13:17;;;;;;;1.60;0.68;;;14.90;80.70;;;;;;7389543;19;20014;-72
2022/10/15 03:15:47;;;;;;;0.85;0.50;;;14.90;80.70;;;;;;7389387;19;20035;-72
2022/10/15 03:18:16;;;;;;;0.60;0.40;;;14.90;80.70;;;;;;7387563;19;20509;-72
2022/10/15 03:20:55;;;;;;;1.30;0.70;;;14.90;80.90;;;;;;7389090;19;20482;-72
2022/10/15 03:23:26;;;;;;;1.25;0.40;;;14.90;80.90;;;;;;7387968;19;20014;-72
2022/10/15 03:25:55;;;;;;;1.83;0.57;;;14.90;81.00;;;;;;7389323;19;20421;-72
2022/10/15 03:28:25;;;;;;;0.63;0.45;;;15.00;81.00;;;;;;7388130;19;20015;-72
2022/10/15 03:30:55;;;;;;;0.70;0.40;;;14.90;81.00;;;;;;7388810;19;20014;-72
2022/10/15 03:33:25;;;;;;;1.35;0.40;;;15.00;81.20;;;;;;7361380;19;20010;-72
2022/10/15 03:35:57;;;;;;;1.90;0.43;;;14.90;81.20;;;;;;7387389;19;20018;-72
2022/10/15 03:38:27;;;;;;;2.30;0.70;;;14.90;81.30;;;;;;7360467;19;20037;-72
2022/10/15 03:40:57;;;;;;;0.90;0.43;;;15.00;81.40;;;;;;7361370;19;20015;-72
2022/10/15 03:43:27;;;;;;;4.45;0.80;;;14.90;81.40;;;;;;7383203;19;20482;-72
2022/10/15 03:45:57;;;;;;;2.78;1.70;;;14.90;82.10;;;;;;7360388;19;20010;-72
2022/10/15 03:48:26;;;;;;;2.40;0.70;;;14.90;82.20;;;;;;7360173;19;20070;-72
2022/10/15 03:50:59;;;;;;;0.70;0.40;;;15.00;82.30;;;;;;7360618;19;20415;-72
2022/10/15 03:53:29;;;;;;;1.10;0.57;;;15.00;82.30;;;;;;7361680;19;20034;-72
2022/10/15 03:56:03;;;;;;;0.95;0.40;;;15.00;82.50;;;;;;7361091;19;20014;-72
2022/10/15 03:58:33;;;;;;;0.98;0.52;;;15.00;82.50;;;;;;7380224;19;20038;-72
2022/10/15 04:01:03;;;;;;;1.75;0.50;;;15.00;82.50;;;;;;7360250;19;20011;-72
2022/10/15 04:03:33;;;;;;;1.48;0.38;;;15.00;82.50;;;;;;7360069;19;20048;-72
2022/10/15 04:06:06;;;;;;;2.67;0.45;;;15.00;82.40;;;;;;7360050;19;20792;-72
2022/10/15 04:08:36;;;;;;;0.90;0.40;;;15.10;82.50;;;;;;7360591;19;20014;-72
2022/10/15 04:11:05;;;;;;;1.73;0.43;;;15.00;82.40;;;;;;7360844;19;20062;-72
2022/10/15 04:13:35;;;;;;;0.70;0.40;;;15.10;82.50;;;;;;7382060;19;20021;-72
2022/10/15 04:16:06;;;;;;;0.50;0.30;;;15.00;82.40;;;;;;7359795;19;20011;-72
2022/10/15 04:18:36;;;;;;;1.02;0.35;;;15.10;82.50;;;;;;7359211;19;20015;-70
2022/10/15 04:21:09;;;;;;;1.33;0.30;;;15.10;82.40;;;;;;7360196;19;20015;-70
2022/10/15 04:23:38;;;;;;;3.10;0.57;;;15.10;82.50;;;;;;7359758;19;20406;-71
2022/10/15 04:26:08;;;;;;;0.60;0.40;;;15.10;82.40;;;;;;7360047;19;20018;-73
2022/10/15 04:28:38;;;;;;;2.80;0.40;;;15.10;82.40;;;;;;7381994;19;20078;-71
2022/10/15 04:31:08;;;;;;;2.33;0.43;;;15.10;82.40;;;;;;7363655;19;20482;-70
2022/10/15 04:33:38;;;;;;;2.15;0.98;;;15.10;82.40;;;;;;7360797;19;20032;-71
2022/10/15 04:36:14;;;;;;;1.45;1.10;;;15.10;82.40;;;;;;7366341;19;20022;-71
2022/10/15 04:38:43;;;;;;;0.95;0.32;;;15.10;82.30;;;;;;7364844;19;20478;-71
2022/10/15 04:41:14;;;;;;;0.70;0.28;;;15.10;82.40;;;;;;7367214;19;20014;-71
2022/10/15 04:43:44;;;;;;;2.50;0.70;;;15.10;82.30;;;;;;7384519;19;20010;-72
2022/10/15 04:46:14;;;;;;;1.48;0.57;;;15.10;82.30;;;;;;7388053;19;20021;-71
2022/10/15 04:48:43;;;;;;;3.95;0.50;;;15.10;82.30;;;;;;7366202;19;20041;-71
2022/10/15 04:51:18;;;;;;;1.15;0.30;;;15.00;82.20;;;;;;7366619;19;20014;-71
2022/10/15 04:53:48;;;;;;;3.60;0.45;;;15.00;82.30;;;;;;7366985;19;20019;-71
2022/10/15 04:56:20;;;;;;;1.45;0.50;;;15.00;82.30;;;;;;7366774;19;20014;-71
2022/10/15 04:58:51;;;;;;;0.68;0.30;;;15.10;82.40;;;;;;7364672;19;20060;-71
2022/10/15 05:01:22;;;;;;;3.22;0.65;;;15.00;82.30;;;;;;7388135;19;20042;-71
2022/10/15 05:03:52;;;;;;;2.22;0.40;;;15.10;82.40;;;;;;7366104;19;20034;-71
2022/10/15 05:06:24;;;;;;;0.90;0.50;;;15.00;82.30;;;;;;7365373;19;20051;-71
2022/10/15 05:08:54;;;;;;;2.78;0.50;;;15.00;82.30;;;;;;7370156;19;20474;-71
2022/10/15 05:11:25;;;;;;;0.60;0.40;;;15.10;82.40;;;;;;7365624;19;20010;-70
2022/10/15 05:13:57;;;;;;;2.60;0.60;;;15.00;82.30;;;;;;7366282;19;20038;-71
2022/10/15 05:16:29;;;;;;;1.35;0.50;;;15.00;82.30;;;;;;7385832;19;20486;-71
2022/10/15 05:19:01;;;;;;;1.63;0.40;;;15.00;82.30;;;;;;7363581;19;20014;-71
2022/10/15 05:21:34;;;;;;;1.25;0.47;;;15.00;82.40;;;;;;7365297;19;20640;-71
2022/10/15 05:24:04;;;;;;;1.65;0.40;;;15.10;82.50;;;;;;7365803;19;20053;-71
2022/10/15 05:26:34;;;;;;;2.13;0.55;;;15.10;82.50;;;;;;7366410;19;20061;-71
2022/10/15 05:29:04;;;;;;;1.42;0.43;;;15.10;82.50;;;;;;7367606;19;20019;-71
2022/10/15 05:31:35;;;;;;;1.95;0.60;;;15.10;82.50;;;;;;7389751;19;20018;-70
2022/10/15 05:34:08;;;;;;;3.05;0.70;;;15.00;82.40;;;;;;7366266;19;20522;-71
2022/10/15 05:36:41;;;;;;;2.90;0.90;;;15.10;82.50;;;;;;7363491;19;20038;-71
2022/10/15 05:39:12;;;;;;;2.55;0.80;;;15.10;82.50;;;;;;7364981;19;20494;-71
2022/10/15 05:41:42;;;;;;;1.52;0.70;;;15.10;82.50;;;;;;7365723;19;20010;-71
2022/10/15 05:44:11;;;;;;;1.02;0.60;;;15.10;82.50;;;;;;7365405;19;20042;-71
2022/10/15 05:46:41;;;;;;;1.35;0.70;;;15.10;82.50;;;;;;7383602;19;20043;-71
2022/10/15 05:49:11;;;;;;;11.40;1.48;;;15.00;82.40;;;;;;7364575;19;20010;-71
2022/10/15 05:51:43;;;;;;;2.03;1.00;;;15.00;82.30;;;;;;7364826;19;20120;-71
2022/10/15 05:54:13;;;;;;;3.10;0.90;;;15.00;82.30;;;;;;7364544;19;20018;-71
2022/10/15 05:56:43;;;;;;;1.30;0.70;;;15.00;82.40;;;;;;7364609;19;20423;-70
2022/10/15 05:59:12;;;;;;;2.42;1.00;;;15.00;82.40;;;;;;7366189;19;20018;-71
2022/10/15 06:01:42;;;;;;;2.95;0.90;;;15.00;82.30;;;;;;7386627;19;20018;-71
2022/10/15 06:04:12;;;;;;;2.22;0.77;;;15.00;82.30;;;;;;7363939;19;20038;-71
2022/10/15 06:06:44;;;;;;;3.65;1.02;;;15.00;82.40;;;;;;7361601;19;20469;-71
2022/10/15 06:09:14;;;;;;;1.38;1.00;;;14.90;82.30;;;;;;7363264;19;20403;-71
2022/10/15 06:11:44;;;;;;;1.90;0.90;;;15.00;82.40;;;;;;7365466;19;20014;-70
2022/10/15 06:14:14;;;;;;;4.32;0.90;;;15.00;82.50;;;;;;7364508;19;20014;-71
2022/10/15 06:16:44;;;;;;;4.32;1.50;;;15.00;82.60;;;;;;7382111;19;20022;-72
2022/10/15 06:19:14;;;;;;;1.85;1.23;;;15.00;82.50;;;;;;7383500;19;20038;-70
2022/10/15 06:21:46;;;;;;;3.33;1.60;;;15.00;82.60;;;;;;7364174;19;20038;-70
2022/10/15 06:24:16;;;;;;;7.00;1.73;;;15.10;82.70;;;;;;7364447;19;20025;-72
2022/10/15 06:26:46;;;;;;;5.05;2.17;;;15.10;82.70;;;;;;7366264;19;20014;-71
2022/10/15 06:29:16;;;;;;;9.27;1.98;;;15.10;82.70;;;;;;7366193;19;20066;-71
2022/10/15 06:31:45;;;;;;;4.47;1.75;;;15.10;82.70;;;;;;7367200;19;20494;-72
2022/10/15 06:34:15;;;;;;;5.13;1.70;;;15.10;82.90;;;;;;7385293;19;20019;-71
2022/10/15 06:36:47;;;;;;;2.67;1.30;;;15.10;82.90;;;;;;7361074;19;20522;-71
2022/10/15 06:39:17;;;;;;;2.80;1.40;;;15.10;82.80;;;;;;7362121;19;20010;-72
2022/10/15 06:41:47;;;;;;;2.38;1.00;;;15.10;82.80;;;;;;7363203;19;20011;-71
2022/10/15 06:44:16;;;;;;;3.53;1.63;;;15.10;82.80;;;;;;7363500;19;20029;-72
2022/10/15 06:46:46;;;;;;;2.10;1.25;;;15.20;82.90;;;;;;7361158;19;20014;-70
2022/10/15 06:49:16;;;;;;;3.40;0.90;;;15.20;83.00;;;;;;7383075;19;20015;-70
2022/10/15 06:51:48;;;;;;;1.85;0.98;;;15.20;82.90;;;;;;7362243;19;20022;-71
2022/10/15 06:54:18;;;;;;;2.50;1.10;;;15.30;82.90;;;;;;7363165;19;20013;-71
2022/10/15 06:56:48;;;;;;;1.95;0.90;;;15.30;82.90;;;;;;7362369;19;20498;-70
2022/10/15 06:59:17;;;;;;;2.08;1.38;;;15.30;82.80;;;;;;7362504;19;20044;-72
2022/10/15 07:01:47;;;;;;;2.20;0.80;;;15.30;82.80;;;;;;7362756;19;20502;-71
2022/10/15 07:04:17;;;;;;;4.68;1.40;;;15.40;82.60;;;;;;7383656;19;20493;-71
2022/10/15 07:06:49;;;;;;;2.10;0.90;;;15.40;82.50;;;;;;7360263;19;20478;-72
2022/10/15 07:09:19;;;;;;;2.38;1.33;;;15.40;81.70;;;;;;7361746;19;20018;-70
2022/10/15 07:11:49;;;;;;;2.33;1.00;;;15.40;79.80;;;;;;7361740;19;20768;-70
2022/10/15 07:14:19;;;;;;;1.88;1.00;;;15.50;80.20;;;;;;7362570;19;20010;-70
2022/10/15 07:16:48;;;;;;;3.00;1.50;;;15.60;79.70;;;;;;7361029;19;20039;-71
2022/10/15 07:19:18;;;;;;;5.00;1.05;;;15.60;79.40;;;;;;7382067;19;20021;-71
2022/10/15 07:21:50;;;;;;;1.33;1.08;;;15.60;79.80;;;;;;7364093;19;20010;-71
2022/10/15 07:24:20;;;;;;;1.90;1.20;;;15.70;79.60;;;;;;7365576;19;20122;-70
2022/10/15 07:26:50;;;;;;;3.15;0.95;;;15.70;79.40;;;;;;7362613;19;20015;-70
2022/10/15 07:29:20;;;;;;;2.10;1.08;;;15.80;79.40;;;;;;7365021;19;20015;-72
2022/10/15 07:31:49;;;;;;;3.80;1.50;;;15.80;79.40;;;;;;7361410;19;20505;-71
2022/10/15 07:34:20;;;;;;;4.35;1.30;;;15.80;78.40;;;;;;7382964;19;20025;-72
2022/10/15 07:36:52;;;;;;;1.85;1.45;;;16.00;78.80;;;;;;7359151;19;20021;-71
2022/10/15 07:39:22;;;;;;;1.90;1.02;;;16.10;78.50;;;;;;7360884;19;20074;-71
2022/10/15 07:41:52;;;;;;;3.63;1.10;;;16.10;78.10;;;;;;7361587;19;20015;-71
2022/10/15 07:44:21;;;;;;;3.45;1.30;;;16.20;77.20;;;;;;7361663;19;20011;-71
2022/10/15 07:46:51;;;;;;;2.83;1.70;;;16.20;75.70;;;;;;7359123;19;20038;-71
2022/10/15 07:49:21;;;;;;;2.13;1.42;;;16.20;75.40;;;;;;7381940;19;20495;-71
2022/10/15 07:51:53;;;;;;;3.25;1.38;;;16.30;74.50;;;;;;7360750;19;20038;-70
2022/10/15 07:54:23;;;;;;;2.75;1.25;;;16.30;73.90;;;;;;7361700;19;20054;-71
2022/10/15 07:56:53;;;;;;;3.88;1.30;;;16.30;73.40;;;;;;7360472;19;20018;-71
2022/10/15 07:59:23;;;;;;;5.32;1.60;;;16.20;72.20;;;;;;7362844;19;20011;-71
2022/10/15 08:01:52;;;;;;;2.42;1.50;;;16.10;71.50;;;;;;7363809;19;20010;-70
2022/10/15 08:04:22;;;;;;;1.63;1.30;;;16.10;72.90;;;;;;7386418;19;20470;-72
2022/10/15 08:06:55;;;;;;;3.95;1.77;;;16.10;72.30;;;;;;7358310;19;20022;-71
2022/10/15 08:09:24;;;;;;;4.68;1.90;;;16.10;72.10;;;;;;7359985;19;20010;-71
2022/10/15 08:11:54;;;;;;;7.03;1.90;;;16.10;72.80;;;;;;7367127;19;20497;-70
2022/10/15 08:14:24;;;;;;;2.22;1.58;;;16.10;72.30;;;;;;7367428;19;20532;-71
2022/10/15 08:16:54;;;;;;;9.32;1.90;;;16.00;71.80;;;;;;7364721;19;20015;-71
2022/10/15 08:19:23;;;;;;;7.18;1.40;;;16.10;73.30;;;;;;7387813;19;20015;-71
2022/10/15 08:21:56;;;;;;;2.15;1.10;;;16.00;72.50;;;;;;7368132;19;20014;-71
2022/10/15 08:24:26;;;;;;;2.42;1.08;;;15.90;71.40;;;;;;7370237;19;20014;-70
2022/10/15 08:26:56;;;;;;;4.80;1.20;;;15.80;70.10;;;;;;7364909;19;20034;-71
2022/10/15 08:29:26;;;;;;;3.33;1.10;;;15.80;70.30;;;;;;7366982;19;20051;-70
2022/10/15 08:31:55;;;;;;;3.42;1.08;;;15.70;69.00;;;;;;7366244;19;20014;-70
2022/10/15 08:34:25;;;;;;;3.15;0.90;;;15.90;71.20;;;;;;7390121;19;20018;-71
2022/10/15 08:36:58;;;;;;;1.38;1.00;;;15.80;68.80;;;;;;7362856;19;20018;-71
2022/10/15 08:39:27;;;;;;;2.22;1.30;;;15.80;69.90;;;;;;7366549;19;20010;-71
2022/10/15 08:42:01;;;;;;;3.65;1.10;;;15.90;69.80;;;;;;7367219;19;20034;-71
2022/10/15 08:44:38;;;;;;;1.50;0.90;;;15.90;68.90;;;;;;7389515;19;20350;-71
2022/10/15 08:47:15;;;;;;;3.00;0.90;;;15.90;68.70;;;;;;7364031;19;20006;-71
2022/10/15 08:49:50;;;;;;;3.58;0.93;;;16.00;69.40;;;;;;7365691;19;20006;-70
2022/10/15 08:52:27;;;;;;;2.42;0.95;;;15.90;67.00;;;;;;7366831;19;20015;-70
2022/10/15 08:55:00;;;;;;;3.42;1.30;;;16.00;68.50;;;;;;7366146;19;20010;-71
2022/10/15 08:57:39;;;;;;;5.55;1.13;;;15.90;68.40;;;;;;7367628;19;20011;-71
2022/10/15 09:00:17;;;;;;;1.73;1.10;;;15.90;68.10;;;;;;7369569;19;20019;-71
2022/10/15 09:02:54;;;;;;;2.20;1.30;;;15.90;67.90;;;;;;7369811;19;20015;-72
2022/10/15 09:05:33;;;;;;;3.78;1.27;;;15.90;69.50;;;;;;7391982;19;20010;-71
2022/10/15 09:08:16;;;;;;;1.73;0.93;;;16.00;68.10;;;;;;7363027;19;20510;-71
2022/10/15 09:10:50;;;;;;;3.03;1.10;;;16.10;67.70;;;;;;7364046;19;20046;-71
2022/10/15 09:13:26;;;;;;;2.83;1.00;;;16.10;67.00;;;;;;7365227;19;20006;-71
2022/10/15 09:16:02;;;;;;;2.75;1.42;;;16.20;67.40;;;;;;7365350;19;20014;-71
2022/10/15 09:18:34;;;;;;;2.58;1.33;;;16.10;67.30;;;;;;7366302;19;20479;-71
2022/10/15 09:21:08;;;;;;;3.08;1.17;;;16.20;67.40;;;;;;7365835;19;20039;-70
2022/10/15 09:23:42;;;;;;;5.45;1.15;;;16.20;67.60;;;;;;7387536;19;20021;-71
2022/10/15 09:26:17;;;;;;;;;;;16.20;67.60;;;;;;7368793;19;20064;-70
2022/10/15 09:28:53;;;;;;;1.92;1.00;;;16.30;67.40;;;;;;7364478;19;19942;-71
2022/10/15 09:31:29;;;;;;;3.85;1.42;;;16.20;67.20;;;;;;7364851;19;20463;-70
2022/10/15 09:34:03;;;;;;;3.03;1.30;;;16.30;66.40;;;;;;7366358;19;20010;-70
2022/10/15 09:36:40;;;;;;;5.45;1.83;;;16.40;67.10;;;;;;7363719;19;20099;-70
2022/10/15 09:39:37;;;;;;;3.40;1.60;;;16.50;67.50;;;;;;7364860;19;20011;-71
2022/10/15 09:42:21;;;;;;;3.22;1.65;;;16.60;66.20;;;;;;7362609;19;20474;-71
2022/10/15 09:44:53;;;;;;;2.53;1.50;;;16.40;64.30;;;;;;7364820;19;20025;-71
2022/10/15 09:47:27;;;;;;;1.50;1.00;;;16.60;64.50;;;;;;7383288;19;20014;-70
2022/10/15 09:49:57;;;;;;;2.88;1.23;;;16.70;65.30;;;;;;7363349;19;20010;-71
2022/10/15 09:52:41;;;;;;;4.93;1.25;;;16.80;64.80;;;;;;7364286;19;20482;-73
2022/10/15 09:55:30;;;;;;;3.60;1.10;;;16.80;61.60;;;;;;7365528;19;20394;-70
2022/10/15 09:58:06;;;;;;;2.88;1.50;;;16.90;60.50;;;;;;7366651;19;20255;-70
2022/10/15 10:00:54;;;;;;;1.33;0.80;;;17.10;62.50;;;;;;7364121;19;20014;-70
2022/10/15 10:03:26;;;;;;;2.22;0.85;;;17.20;60.20;;;;;;7366788;19;20525;-71
2022/10/15 10:06:05;;;;;;;3.72;0.88;;;17.20;61.20;;;;;;7363340;19;20018;-71
2022/10/15 10:08:38;;;;;;;3.05;1.02;;;17.20;60.10;;;;;;7384339;19;20339;-70
2022/10/15 10:11:12;;;;;;;2.60;0.85;;;17.30;60.00;;;;;;7363625;19;20511;-71
2022/10/15 10:13:47;;;;;;;2.30;0.80;;;17.30;55.90;;;;;;7364248;19;20033;-70
2022/10/15 10:16:17;;;;;;;;;;;17.50;59.90;;;;;;7367363;19;20491;-71
2022/10/15 10:19:04;;;;;;;1.17;0.70;;;17.50;58.00;;;;;;7365385;19;20256;-71
2022/10/15 10:21:36;;;;;;;1.30;0.63;;;17.60;58.10;;;;;;7362172;19;20021;-71
2022/10/15 10:24:27;;;;;;;4.35;0.80;;;17.70;58.80;;;;;;7364100;19;20207;-71
2022/10/15 10:27:00;;;;;;;1.08;0.60;;;17.60;56.60;;;;;;7360398;19;20014;-70
2022/10/15 10:29:34;;;;;;;2.63;0.85;;;17.80;55.10;;;;;;7383993;19;20010;-71
2022/10/15 10:32:13;;;;;;;2.83;0.70;;;17.80;53.70;;;;;;7363390;19;20079;-71
2022/10/15 10:34:45;;;;;;;1.23;0.52;;;17.90;53.30;;;;;;7363967;19;20018;-70
2022/10/15 10:37:21;;;;;;;3.22;0.70;;;17.80;52.30;;;;;;7360884;19;20015;-71
2022/10/15 10:39:57;;;;;;;2.00;0.90;;;18.00;53.40;;;;;;7362123;19;20486;-71
2022/10/15 10:42:37;;;;;;;1.80;1.00;;;17.80;52.30;;;;;;7362047;19;20015;-72
2022/10/15 10:45:21;;;;;;;2.22;1.00;;;18.10;54.00;;;;;;7363197;19;20015;-72
2022/10/15 10:47:52;;;;;;;1.42;0.93;;;18.00;52.70;;;;;;7359717;19;20806;-70
2022/10/15 10:50:36;;;;;;;2.65;0.90;;;18.00;52.50;;;;;;7383597;19;20025;-70
2022/10/15 10:53:16;;;;;;;;;;;18.00;52.60;;;;;;7362708;19;20097;-71
2022/10/15 10:55:47;;;;;;;2.33;1.15;;;17.90;52.40;;;;;;7362320;19;19921;-71
2022/10/15 10:58:23;;;;;;;1.15;0.80;;;18.00;51.40;;;;;;7365624;19;20558;-71
2022/10/15 11:00:56;;;;;;;2.85;0.90;;;18.00;52.50;;;;;;7362873;19;20078;-70
2022/10/15 11:03:33;;;;;;;1.73;0.90;;;18.20;51.20;;;;;;7364688;19;20034;-71
2022/10/15 11:06:24;;;;;;;3.38;1.17;;;18.20;47.20;;;;;;7361223;19;20018;-71
2022/10/15 11:09:06;;;;;;;2.35;1.10;;;18.30;48.60;;;;;;7360847;19;20030;-70
2022/10/15 11:11:44;;;;;;;1.85;0.90;;;18.50;47.50;;;;;;7383643;19;20010;-72
2022/10/15 11:14:26;;;;;;;1.00;0.70;;;18.40;43.10;;;;;;7366338;19;20014;-71
2022/10/15 11:17:03;;;;;;;1.52;0.98;;;18.50;46.30;;;;;;7360170;19;20164;-70
2022/10/15 11:19:39;;;;;;;2.72;0.93;;;18.40;42.40;;;;;;7361787;19;20017;-71
2022/10/15 11:22:47;;;;;;;3.40;0.98;;;18.40;40.30;;;;;;7361360;19;20044;-71
2022/10/15 11:25:29;;;;;;;2.25;1.00;;;18.30;41.10;;;;;;7363514;19;20525;-71
2022/10/15 11:28:10;;;;;;;2.40;0.95;;;18.30;40.90;;;;;;7359664;19;20011;-71
2022/10/15 11:30:53;;;;;;;1.10;0.80;;;18.40;41.10;;;;;;7361199;19;20038;-70
2022/10/15 11:33:37;;;;;;;5.20;0.90;;;18.70;36.00;;;;;;7362921;19;20014;-71
2022/10/15 11:36:25;;;;;;;1.60;0.82;;;18.90;36.40;;;;;;7363494;19;20026;-71
2022/10/15 11:39:05;;;;;;;3.38;0.85;;;18.90;33.50;;;;;;7386021;19;20026;-71
2022/10/15 11:41:46;;;;;;;0.88;0.60;;;18.90;19.80;;;;;;7387518;19;20015;-74
2022/10/15 11:44:28;;;;;;;2.10;0.80;;;18.90;21.50;;;;;;7341433;19;20008;-71
2022/10/15 11:47:16;;;;;;;6.00;2.97;;;19.00;20.80;;;;;;7372816;19;20042;-70
2022/10/15 11:50:00;;;;;;;3.80;0.60;;;19.10;19.90;;;;;;7393761;19;20605;-72
2022/10/15 11:52:50;;;;;;;2.35;0.70;;;19.20;16.50;;;;;;7398335;19;20018;-70
2022/10/15 11:55:22;;;;;;;2.75;0.98;;;19.30;14.10;;;;;;7374269;19;20011;-70
2022/10/15 11:57:59;;;;;;;1.88;0.90;;;19.30;12.70;;;;;;7375205;19;20361;-69
2022/10/15 12:00:33;;;;;;;1.48;0.65;;;19.30;7.90;;;;;;7374810;19;20011;-70
2022/10/15 12:03:13;;;;;;;1.42;0.70;;;19.30;10.40;;;;;;7377418;19;20478;-69
2022/10/15 12:05:48;;;;;;;2.63;0.90;;;19.10;8.50;;;;;;7373068;19;20015;-71
2022/10/15 12:08:18;;;;;;;;;;;19.00;10.60;;;;;;7377164;19;20014;-69
2022/10/15 12:11:02;;;;;;;1.77;0.77;;;18.90;10.50;;;;;;7372839;19;20335;-71
2022/10/15 12:13:40;;;;;;;3.33;0.93;;;18.80;10.40;;;;;;7395738;19;20015;-70
2022/10/15 12:16:19;;;;;;;2.65;0.88;;;18.70;7.70;;;;;;7373498;19;20035;-70
2022/10/15 12:18:57;;;;;;;2.75;0.82;;;18.50;6.20;;;;;;7373162;19;20078;-70
2022/10/15 12:21:34;;;;;;;2.00;0.70;;;18.60;9.60;;;;;;7373715;19;20007;-71
2022/10/15 12:24:09;;;;;;;2.78;0.80;;;18.60;9.40;;;;;;7373745;19;20006;-72
2022/10/15 12:26:39;;;;;;;1.58;0.70;;;18.70;9.70;;;;;;7373980;19;20462;-71
2022/10/15 12:29:22;;;;;;;2.42;0.93;;;18.70;10.90;;;;;;7373821;19;20015;-71
2022/10/15 12:31:55;;;;;;;0.98;0.70;;;18.70;11.10;;;;;;7372704;19;20482;-72
2022/10/15 12:34:32;;;;;;;2.25;0.98;;;18.50;12.60;;;;;;7395257;19;20034;-70
2022/10/15 12:37:05;;;;;;;1.63;0.90;;;18.30;17.10;;;;;;7370288;19;20503;-71
2022/10/15 12:39:35;;;;;;;3.15;1.00;;;18.30;19.40;;;;;;7373361;19;20466;-70
2022/10/15 12:42:25;;;;;;;1.73;0.80;;;18.10;19.50;;;;;;7372726;19;20449;-70
2022/10/15 12:44:56;;;;;;;2.00;1.13;;;18.00;17.70;;;;;;7374434;19;20015;-69
2022/10/15 12:47:48;;;;;;;1.80;0.80;;;18.10;22.10;;;;;;7397796;19;20530;-70
2022/10/15 12:50:24;;;;;;;3.20;1.10;;;18.10;22.20;;;;;;7399838;19;20015;-71
2022/10/15 12:53:01;;;;;;;1.70;1.00;;;18.10;22.10;;;;;;7401037;19;20018;-71
2022/10/15 12:55:34;;;;;;;1.38;0.60;;;18.10;20.60;;;;;;7399679;19;20498;-70
2022/10/15 12:58:07;;;;;;;0.90;0.70;;;18.20;21.20;;;;;;7394245;19;20017;-70
2022/10/15 13:00:43;;;;;;;1.48;0.70;;;18.30;18.80;;;;;;7394174;19;20478;-70
2022/10/15 13:03:19;;;;;;;1.35;0.50;;;18.30;18.80;;;;;;7396023;19;20118;-70
2022/10/15 13:05:53;;;;;;;0.88;0.68;;;18.30;16.20;;;;;;7394062;19;20050;-71
2022/10/15 13:08:27;;;;;;;7.13;1.00;;;18.30;16.40;;;;;;7392031;19;20021;-70
2022/10/15 13:10:59;;;;;;;1.52;0.60;;;18.40;17.00;;;;;;7392775;19;20011;-69
2022/10/15 13:13:34;;;;;;;5.68;1.00;;;18.30;14.40;;;;;;7393054;19;20011;-69
2022/10/15 13:16:10;;;;;;;2.05;0.55;;;18.30;15.90;;;;;;7392030;19;20010;-70
2022/10/15 13:18:52;;;;;;;1.45;0.70;;;18.30;17.70;;;;;;7392178;19;20014;-70
2022/10/15 13:21:45;;;;;;;0.98;0.77;;;18.30;16.30;;;;;;7392762;19;20026;-70
2022/10/15 13:24:19;;;;;;;1.52;0.77;;;18.30;16.90;;;;;;7391498;19;20055;-69